createdAt,value
2024-02-28T00:00:00.620Z,100937.78
2024-02-28T00:02:33.654Z,100937.83
2024-02-28T00:05:05.800Z,100932.48
2024-02-28T00:07:37.729Z,100936.66
2024-02-28T00:10:10.866Z,100937.40
2024-02-28T00:12:43.491Z,100940.77
2024-02-28T00:15:15.628Z,100937.45
2024-02-28T00:17:47.834Z,100937.38
2024-02-28T00:20:19.868Z,100938.58
2024-02-28T00:22:51.774Z,100935.80
2024-02-28T00:25:23.645Z,100935.32
2024-02-28T00:27:55.779Z,100941.16
2024-02-28T00:30:29.664Z,100942.50
2024-02-28T00:33:01.965Z,100936.41
2024-02-28T00:35:35.574Z,100936.21
2024-02-28T00:38:07.549Z,100935.55
2024-02-28T00:40:39.461Z,100933.80
2024-02-28T00:43:11.553Z,100932.84
2024-02-28T00:45:44.106Z,100932.37
2024-02-28T00:48:16.604Z,100932.35
2024-02-28T00:50:48.534Z,100940.04
2024-02-28T00:53:21.021Z,100939.41
2024-02-28T00:55:53.248Z,100941.88
2024-02-28T00:58:25.125Z,100941.58
2024-02-28T01:00:57.299Z,100939.63
2024-02-28T01:03:29.201Z,100937.17
2024-02-28T01:06:05.049Z,100934.20
2024-02-28T01:08:35.458Z,100931.33
2024-02-28T01:11:07.478Z,100932.60
2024-02-28T01:13:39.353Z,100929.52
2024-02-28T01:16:11.757Z,100927.77
2024-02-28T01:18:43.655Z,100928.93
2024-02-28T01:21:15.557Z,100932.02
2024-02-28T01:23:47.441Z,100929.39
2024-02-28T01:26:21.465Z,100927.02
2024-02-28T01:28:53.410Z,100927.90
2024-02-28T01:31:25.442Z,100930.08
2024-02-28T01:33:58.895Z,100930.77
2024-02-28T01:36:30.859Z,100928.52
2024-02-28T01:39:02.698Z,100926.25
2024-02-28T01:41:34.578Z,100917.48
2024-02-28T01:44:06.846Z,100914.56
2024-02-28T01:46:38.661Z,100914.25
2024-02-28T01:49:10.559Z,100910.70
2024-02-28T01:51:44.035Z,100912.33
2024-02-28T01:54:16.545Z,100915.92
2024-02-28T01:56:48.596Z,100914.46
2024-02-28T01:59:21.558Z,100916.04
2024-02-28T02:01:54.202Z,100914.73
2024-02-28T02:04:26.169Z,100917.59
2024-02-28T02:06:59.509Z,100914.24
2024-02-28T02:09:31.737Z,100911.25
2024-02-28T02:12:04.246Z,100906.06
2024-02-28T02:14:36.247Z,100907.39
2024-02-28T02:17:08.380Z,100903.13
2024-02-28T02:19:40.402Z,100908.05
2024-02-28T02:22:15.406Z,100906.07
2024-02-28T02:24:47.354Z,100907.48
2024-02-28T02:27:19.252Z,100904.94
2024-02-28T02:29:51.066Z,100905.48
2024-02-28T02:32:22.997Z,100905.79
2024-02-28T02:34:54.817Z,100906.94
2024-02-28T02:37:26.816Z,100908.59
2024-02-28T02:39:59.278Z,100908.77
2024-02-28T02:42:31.151Z,100905.61
2024-02-28T02:45:03.102Z,100910.37
2024-02-28T02:47:35.101Z,100919.15
2024-02-28T02:50:07.909Z,100919.35
2024-02-28T02:52:39.762Z,100917.46
2024-02-28T02:55:12.216Z,100911.48
2024-02-28T02:57:44.789Z,100912.27
2024-02-28T03:00:17.361Z,100909.93
2024-02-28T03:02:49.250Z,100907.44
2024-02-28T03:05:21.086Z,100910.15
2024-02-28T03:07:52.959Z,100909.23
2024-02-28T03:10:24.817Z,100915.27
2024-02-28T03:12:56.984Z,100919.88
2024-02-28T03:15:29.290Z,100921.30
2024-02-28T03:18:01.262Z,100918.66
2024-02-28T03:20:33.079Z,100921.48
2024-02-28T03:23:06.858Z,100923.37
2024-02-28T03:25:38.636Z,100923.90
2024-02-28T03:28:10.842Z,100922.14
2024-02-28T03:30:43.080Z,100920.95
2024-02-28T03:33:15.096Z,100919.39
2024-02-28T03:35:46.933Z,100922.39
2024-02-28T03:38:18.889Z,100925.00
2024-02-28T03:40:50.683Z,100925.86
2024-02-28T03:43:22.546Z,100927.88
2024-02-28T03:45:54.382Z,100932.27
2024-02-28T03:48:26.588Z,100930.46
2024-02-28T03:50:58.554Z,100931.27
2024-02-28T03:53:30.859Z,100929.78
2024-02-28T03:56:02.783Z,100924.70
2024-02-28T03:58:34.693Z,100929.52
2024-02-28T04:01:07.056Z,100927.52
2024-02-28T04:03:39.022Z,100927.88
2024-02-28T04:06:10.940Z,100932.40
2024-02-28T04:08:44.681Z,100934.24
2024-02-28T04:11:16.651Z,100933.53
2024-02-28T04:13:48.732Z,100937.21
2024-02-28T04:16:21.030Z,100939.15
2024-02-28T04:18:53.021Z,100933.56
2024-02-28T04:21:25.116Z,100932.43
2024-02-28T04:23:57.007Z,100933.20
2024-02-28T04:26:28.942Z,100931.45
2024-02-28T04:29:02.787Z,100931.55
2024-02-28T04:31:34.939Z,100937.41
2024-02-28T04:34:06.791Z,100937.12
2024-02-28T04:36:38.802Z,100943.64
2024-02-28T04:39:11.022Z,100947.13
2024-02-28T04:41:43.062Z,100947.90
2024-02-28T04:44:15.081Z,100952.61
2024-02-28T04:46:46.855Z,100953.00
2024-02-28T04:49:18.714Z,100949.82
2024-02-28T04:51:51.453Z,100948.36
2024-02-28T04:54:23.419Z,100954.46
2024-02-28T04:56:55.241Z,100955.04
2024-02-28T04:59:27.061Z,100952.95
2024-02-28T05:01:58.970Z,100953.73
2024-02-28T05:04:31.012Z,100954.10
2024-02-28T05:07:04.021Z,100957.83
2024-02-28T05:09:36.572Z,100961.42
2024-02-28T05:12:10.137Z,100963.00
2024-02-28T05:14:42.042Z,100968.68
2024-02-28T05:17:13.813Z,100969.79
2024-02-28T05:19:45.695Z,100971.95
2024-02-28T05:22:17.509Z,100976.80
2024-02-28T05:24:51.685Z,100982.48
2024-02-28T05:27:23.777Z,100986.78
2024-02-28T05:29:55.905Z,100988.86
2024-02-28T05:32:27.880Z,100987.27
2024-02-28T05:35:01.004Z,100989.23
2024-02-28T05:37:32.964Z,100995.42
2024-02-28T05:40:05.108Z,100999.09
2024-02-28T05:42:37.088Z,101001.62
2024-02-28T05:45:10.695Z,101005.84
2024-02-28T05:47:42.635Z,101011.93
2024-02-28T05:50:15.680Z,101011.80
2024-02-28T05:52:47.529Z,101017.34
2024-02-28T05:55:19.617Z,101019.07
2024-02-28T05:57:51.619Z,101023.51
2024-02-28T06:00:24.139Z,101024.23
2024-02-28T06:02:56.186Z,101027.03
2024-02-28T06:05:28.640Z,101030.14
2024-02-28T06:08:00.475Z,101032.06
2024-02-28T06:10:32.539Z,101034.93
2024-02-28T06:13:05.864Z,101036.34
2024-02-28T06:15:37.900Z,101044.61
2024-02-28T06:18:10.639Z,101045.90
2024-02-28T06:20:43.116Z,101042.17
2024-02-28T06:23:23.338Z,101043.25
2024-02-28T06:26:00.004Z,101050.23
2024-02-28T06:28:33.417Z,101053.30
2024-02-28T06:31:05.456Z,101052.58
2024-02-28T06:33:37.405Z,101055.14
2024-02-28T06:36:09.924Z,101055.15
2024-02-28T06:38:41.830Z,101055.83
2024-02-28T06:41:14.128Z,101058.75
2024-02-28T06:43:47.304Z,101058.84
2024-02-28T06:46:19.852Z,101057.70
2024-02-28T06:48:51.676Z,101059.71
2024-02-28T06:51:23.561Z,101059.70
2024-02-28T06:53:55.549Z,101064.77
2024-02-28T06:56:27.632Z,101065.92
2024-02-28T06:58:59.566Z,101067.87
2024-02-28T07:01:31.830Z,101071.02
2024-02-28T07:04:04.285Z,101075.52
2024-02-28T07:06:36.309Z,101078.76
2024-02-28T07:09:09.643Z,101083.34
2024-02-28T07:11:42.458Z,101080.19
2024-02-28T07:14:16.860Z,101085.10
2024-02-28T07:16:48.866Z,101085.57
2024-02-28T07:19:20.913Z,101083.28
2024-02-28T07:21:52.912Z,101085.84
2024-02-28T07:24:25.160Z,101092.37
2024-02-28T07:26:57.104Z,101086.81
2024-02-28T07:29:28.894Z,101086.94
2024-02-28T07:32:02.599Z,101097.14
2024-02-28T07:34:35.048Z,101105.86
2024-02-28T07:37:07.280Z,101107.91
2024-02-28T07:39:39.120Z,101110.51
2024-02-28T07:42:11.137Z,101116.58
2024-02-28T07:44:43.351Z,101122.88
2024-02-28T07:47:15.830Z,101119.95
2024-02-28T07:49:48.334Z,101120.80
2024-02-28T07:52:20.378Z,101121.23
2024-02-28T07:54:52.804Z,101119.36
2024-02-28T07:57:24.858Z,101119.22
2024-02-28T07:59:57.040Z,101115.24
2024-02-28T08:02:29.200Z,101120.71
2024-02-28T08:05:01.231Z,101122.86
2024-02-28T08:07:33.815Z,101117.88
2024-02-28T08:10:07.290Z,101116.59
2024-02-28T08:12:39.254Z,101120.83
2024-02-28T08:15:12.460Z,101123.17
2024-02-28T08:17:44.410Z,101124.04
2024-02-28T08:20:16.909Z,101124.39
2024-02-28T08:22:48.962Z,101127.59
2024-02-28T08:25:20.873Z,101129.38
2024-02-28T08:27:52.914Z,101129.38
2024-02-28T08:30:24.829Z,101132.95
2024-02-28T08:32:56.832Z,101129.56
2024-02-28T08:35:29.553Z,101133.90
2024-02-28T08:38:01.532Z,101142.11
2024-02-28T08:40:33.361Z,101145.02
2024-02-28T08:43:05.486Z,101145.09
2024-02-28T08:45:38.740Z,101145.50
2024-02-28T08:48:11.560Z,101145.42
2024-02-28T08:50:43.494Z,101147.10
2024-02-28T08:53:15.335Z,101148.52
2024-02-28T08:55:47.966Z,101144.60
2024-02-28T08:58:20.476Z,101145.11
2024-02-28T09:00:52.399Z,101144.25
2024-02-28T09:03:24.335Z,101145.05
2024-02-28T09:05:56.118Z,101148.56
2024-02-28T09:08:28.042Z,101149.30
2024-02-28T09:10:59.915Z,101148.89
2024-02-28T09:13:31.883Z,101152.90
2024-02-28T09:16:04.041Z,101155.77
2024-02-28T09:18:36.166Z,101159.23
2024-02-28T09:21:10.001Z,101162.19
2024-02-28T09:23:41.971Z,101163.08
2024-02-28T09:26:13.856Z,101165.30
2024-02-28T09:28:46.203Z,101168.20
2024-02-28T09:31:18.305Z,101167.80
2024-02-28T09:33:50.431Z,101170.72
2024-02-28T09:36:22.379Z,101171.41
2024-02-28T09:38:54.181Z,101178.42
2024-02-28T09:41:28.702Z,101176.48
2024-02-28T09:44:02.336Z,101177.20
2024-02-28T09:46:36.570Z,101183.30
2024-02-28T09:49:09.764Z,101189.97
2024-02-28T09:51:41.937Z,101197.76
2024-02-28T09:54:14.770Z,101196.91
2024-02-28T09:56:46.845Z,101201.89
2024-02-28T09:59:21.906Z,101200.79
2024-02-28T10:01:58.544Z,101197.91
2024-02-28T10:04:31.670Z,101195.34
2024-02-28T10:07:15.421Z,101199.67
2024-02-28T10:09:47.753Z,101208.55
2024-02-28T10:12:20.308Z,101209.86
2024-02-28T10:14:54.251Z,101215.72
2024-02-28T10:17:27.611Z,101215.67
2024-02-28T10:20:05.539Z,101221.29
2024-02-28T10:22:41.311Z,101224.38
2024-02-28T10:25:13.522Z,101224.98
2024-02-28T10:27:45.438Z,101228.26
2024-02-28T10:30:18.520Z,101235.59
2024-02-28T10:32:53.828Z,101242.04
2024-02-28T10:35:26.809Z,101249.88
2024-02-28T10:37:58.790Z,101253.40
2024-02-28T10:40:31.861Z,101253.20
2024-02-28T10:43:05.099Z,101251.21
2024-02-28T10:45:49.343Z,101253.72
2024-02-28T10:48:30.445Z,101251.70
2024-02-28T10:51:05.044Z,101252.36
2024-02-28T10:53:43.829Z,101254.02
2024-02-28T10:56:21.113Z,101256.73
2024-02-28T10:58:59.232Z,101258.15
2024-02-28T11:01:31.605Z,101263.90
2024-02-28T11:04:04.892Z,101265.55
2024-02-28T11:06:36.874Z,101266.72
2024-02-28T11:09:13.177Z,101265.80
2024-02-28T11:11:45.265Z,101262.34
2024-02-28T11:14:22.785Z,101261.84
2024-02-28T11:17:05.122Z,101264.13
2024-02-28T11:19:37.398Z,101265.23
2024-02-28T11:22:10.218Z,101270.13
2024-02-28T11:24:46.347Z,101272.50
2024-02-28T11:27:18.951Z,101269.27
2024-02-28T11:29:51.629Z,101272.37
2024-02-28T11:32:23.710Z,101270.79
2024-02-28T11:34:55.601Z,101275.30
2024-02-28T11:37:28.488Z,101278.66
2024-02-28T11:40:00.781Z,101282.85
2024-02-28T11:42:33.019Z,101282.13
2024-02-28T11:45:06.725Z,101281.84
2024-02-28T11:47:38.726Z,101284.05
2024-02-28T11:50:11.629Z,101288.61
2024-02-28T11:52:43.972Z,101290.77
2024-02-28T11:55:15.871Z,101294.79
2024-02-28T11:57:47.806Z,101295.27
2024-02-28T12:00:20.326Z,101292.97
2024-02-28T12:02:53.390Z,101288.34
2024-02-28T12:05:26.009Z,101297.00
2024-02-28T12:07:59.528Z,101294.58
2024-02-28T12:10:31.601Z,101298.28
2024-02-28T12:13:05.205Z,101297.70
2024-02-28T12:15:37.333Z,101297.58
2024-02-28T12:18:13.382Z,101304.61
2024-02-28T12:20:46.684Z,101303.06
2024-02-28T12:23:19.339Z,101307.33
2024-02-28T12:25:51.421Z,101306.48
2024-02-28T12:28:23.248Z,101308.05
2024-02-28T12:30:55.528Z,101308.17
2024-02-28T12:33:27.486Z,101309.71
2024-02-28T12:35:59.425Z,101309.21
2024-02-28T12:38:31.678Z,101313.05
2024-02-28T12:41:05.128Z,101312.75
2024-02-28T12:43:37.024Z,101315.88
2024-02-28T12:46:09.234Z,101317.83
2024-02-28T12:48:42.913Z,101318.40
2024-02-28T12:51:37.288Z,101317.85
2024-02-28T12:54:10.359Z,101311.96
2024-02-28T12:56:44.079Z,101317.45
2024-02-28T12:59:16.913Z,101323.09
2024-02-28T13:01:49.872Z,101326.03
2024-02-28T13:04:21.823Z,101323.33
2024-02-28T13:06:54.767Z,101322.60
2024-02-28T13:09:26.719Z,101317.83
2024-02-28T13:11:58.869Z,101317.75
2024-02-28T13:14:30.797Z,101317.77
2024-02-28T13:17:04.735Z,101317.41
2024-02-28T13:19:37.068Z,101316.21
2024-02-28T13:22:09.081Z,101317.29
2024-02-28T13:24:41.088Z,101319.54
2024-02-28T13:27:13.167Z,101319.59
2024-02-28T13:29:45.074Z,101316.76
2024-02-28T13:32:16.898Z,101316.41
2024-02-28T13:34:50.033Z,101318.66
2024-02-28T13:37:22.174Z,101317.58
2024-02-28T13:39:54.198Z,101319.70
2024-02-28T13:42:26.703Z,101322.17
2024-02-28T13:44:58.548Z,101325.58
2024-02-28T13:47:30.741Z,101329.27
2024-02-28T13:50:02.672Z,101330.70
2024-02-28T13:52:34.657Z,101336.69
2024-02-28T13:55:07.642Z,101336.11
2024-02-28T13:57:39.779Z,101334.74
2024-02-28T14:00:14.952Z,101338.38
2024-02-28T14:02:47.020Z,101340.66
2024-02-28T14:05:18.964Z,101340.35
2024-02-28T14:07:50.858Z,101342.27
2024-02-28T14:10:23.949Z,101341.08
2024-02-28T14:12:56.346Z,101347.64
2024-02-28T14:15:29.487Z,101348.73
2024-02-28T14:18:01.828Z,101355.27
2024-02-28T14:20:33.738Z,101356.00
2024-02-28T14:23:06.116Z,101358.92
2024-02-28T14:25:38.144Z,101356.09
2024-02-28T14:28:10.695Z,101356.41
2024-02-28T14:30:44.040Z,101356.48
2024-02-28T14:33:16.106Z,101360.79
2024-02-28T14:35:48.087Z,101363.21
2024-02-28T14:38:21.059Z,101366.36
2024-02-28T14:40:56.896Z,101366.23
2024-02-28T14:43:31.522Z,101373.77
2024-02-28T14:46:05.738Z,101375.56
2024-02-28T14:48:39.372Z,101376.35
2024-02-28T14:51:12.645Z,101383.88
2024-02-28T14:53:45.839Z,101385.26
2024-02-28T14:56:20.708Z,101385.85
2024-02-28T14:58:53.038Z,101391.34
2024-02-28T15:01:25.814Z,101392.16
2024-02-28T15:03:57.827Z,101391.52
2024-02-28T15:06:29.620Z,101392.05
2024-02-28T15:09:01.496Z,101396.53
2024-02-28T15:11:34.398Z,101392.73
2024-02-28T15:14:06.532Z,101395.63
2024-02-28T15:16:38.515Z,101396.04
2024-02-28T15:19:10.498Z,101396.52
2024-02-28T15:21:42.753Z,101399.83
2024-02-28T15:24:15.530Z,101394.92
2024-02-28T15:26:47.644Z,101398.48
2024-02-28T15:29:19.577Z,101404.39
2024-02-28T15:31:51.455Z,101401.88
2024-02-28T15:34:23.996Z,101407.66
2024-02-28T15:36:57.355Z,101411.09
2024-02-28T15:39:30.427Z,101411.50
2024-02-28T15:42:03.691Z,101415.66
2024-02-28T15:44:39.140Z,101415.06
2024-02-28T15:47:13.747Z,101413.48
2024-02-28T15:49:47.115Z,101416.66
2024-02-28T15:52:21.049Z,101419.34
2024-02-28T15:54:53.441Z,101418.14
2024-02-28T15:57:25.268Z,101419.60
2024-02-28T15:59:57.653Z,101422.64
2024-02-28T16:02:29.662Z,101418.03
2024-02-28T16:05:02.567Z,101422.55
2024-02-28T16:07:34.571Z,101420.19
2024-02-28T16:10:07.421Z,101423.52
2024-02-28T16:12:40.029Z,101427.06
2024-02-28T16:15:13.072Z,101433.82
2024-02-28T16:17:45.332Z,101434.19
2024-02-28T16:20:17.430Z,101435.41
2024-02-28T16:22:49.428Z,101439.72
2024-02-28T16:25:22.565Z,101440.98
2024-02-28T16:27:54.582Z,101441.20
2024-02-28T16:30:26.547Z,101442.30
2024-02-28T16:32:58.491Z,101445.82
2024-02-28T16:35:31.180Z,101446.74
2024-02-28T16:38:03.091Z,101449.23
2024-02-28T16:40:35.089Z,101449.30
2024-02-28T16:43:07.806Z,101454.45
2024-02-28T16:45:40.931Z,101457.48
2024-02-28T16:48:13.086Z,101463.64
2024-02-28T16:50:45.155Z,101468.83
2024-02-28T16:53:17.185Z,101466.64
2024-02-28T16:55:49.272Z,101472.70
2024-02-28T16:58:21.420Z,101473.98
2024-02-28T17:00:53.488Z,101475.26
2024-02-28T17:03:25.944Z,101475.07
2024-02-28T17:05:58.107Z,101475.92
2024-02-28T17:08:30.092Z,101477.80
2024-02-28T17:11:02.148Z,101476.14
2024-02-28T17:13:34.176Z,101473.54
2024-02-28T17:16:06.307Z,101474.56
2024-02-28T17:18:38.380Z,101475.09
2024-02-28T17:21:10.358Z,101479.77
2024-02-28T17:23:42.328Z,101485.95
2024-02-28T17:26:14.216Z,101487.82
2024-02-28T17:28:46.379Z,101489.96
2024-02-28T17:31:18.263Z,101497.15
2024-02-28T17:33:50.318Z,101498.66
2024-02-28T17:36:22.259Z,101501.77
2024-02-28T17:38:54.141Z,101497.13
2024-02-28T17:41:26.086Z,101496.18
2024-02-28T17:43:57.925Z,101495.79
2024-02-28T17:46:29.815Z,101496.30
2024-02-28T17:49:01.698Z,101495.95
2024-02-28T17:51:36.768Z,101500.05
2024-02-28T17:54:09.674Z,101503.48
2024-02-28T17:56:41.679Z,101506.62
2024-02-28T17:59:13.552Z,101509.17
2024-02-28T18:01:45.576Z,101509.98
2024-02-28T18:04:17.531Z,101510.05
2024-02-28T18:06:49.430Z,101509.98
2024-02-28T18:09:22.270Z,101509.41
2024-02-28T18:11:54.221Z,101511.29
2024-02-28T18:14:26.080Z,101511.13
2024-02-28T18:16:58.022Z,101515.16
2024-02-28T18:19:30.021Z,101514.23
2024-02-28T18:22:02.932Z,101520.52
2024-02-28T18:24:34.917Z,101522.31
2024-02-28T18:27:10.342Z,101520.23
2024-02-28T18:29:42.746Z,101517.54
2024-02-28T18:32:14.821Z,101520.52
2024-02-28T18:34:51.400Z,101520.27
2024-02-28T18:37:25.667Z,101528.08
2024-02-28T18:39:57.721Z,101529.34
2024-02-28T18:42:29.693Z,101533.23
2024-02-28T18:45:01.647Z,101535.48
2024-02-28T18:47:33.535Z,101542.14
2024-02-28T18:50:06.758Z,101544.12
2024-02-28T18:52:38.533Z,101547.64
2024-02-28T18:55:11.618Z,101546.46
2024-02-28T18:57:43.649Z,101548.58
2024-02-28T19:00:17.768Z,101552.23
2024-02-28T19:02:50.390Z,101562.02
2024-02-28T19:05:22.308Z,101561.04
2024-02-28T19:07:54.155Z,101563.29
2024-02-28T19:10:26.141Z,101565.64
2024-02-28T19:12:58.059Z,101569.77
2024-02-28T19:15:29.942Z,101572.56
2024-02-28T19:18:01.939Z,101574.50
2024-02-28T19:20:35.000Z,101573.95
2024-02-28T19:23:07.112Z,101572.09
2024-02-28T19:25:39.006Z,101576.05
2024-02-28T19:28:11.190Z,101574.06
2024-02-28T19:30:44.505Z,101574.86
2024-02-28T19:33:16.675Z,101575.94
2024-02-28T19:35:48.617Z,101571.20
2024-02-28T19:38:20.920Z,101573.73
2024-02-28T19:40:53.066Z,101580.48
2024-02-28T19:43:24.870Z,101578.05
2024-02-28T19:45:56.985Z,101576.63
2024-02-28T19:48:30.355Z,101578.97
2024-02-28T19:51:02.576Z,101574.45
2024-02-28T19:53:34.413Z,101577.52
2024-02-28T19:56:06.605Z,101580.06
2024-02-28T19:58:38.763Z,101578.04
2024-02-28T20:01:11.730Z,101587.41
2024-02-28T20:03:43.738Z,101590.94
2024-02-28T20:06:15.894Z,101592.70
2024-02-28T20:08:49.640Z,101590.48
2024-02-28T20:11:22.273Z,101595.00
2024-02-28T20:13:54.117Z,101594.10
2024-02-28T20:16:25.937Z,101595.14
2024-02-28T20:18:57.893Z,101589.89
2024-02-28T20:21:31.404Z,101588.44
2024-02-28T20:24:03.456Z,101586.02
2024-02-28T20:26:35.393Z,101590.80
2024-02-28T20:29:08.896Z,101591.23
2024-02-28T20:31:40.830Z,101592.34
2024-02-28T20:34:12.743Z,101595.41
2024-02-28T20:36:47.930Z,101596.71
2024-02-28T20:39:19.998Z,101598.50
2024-02-28T20:41:51.887Z,101596.19
2024-02-28T20:44:25.155Z,101599.62
2024-02-28T20:46:58.033Z,101600.83
2024-02-28T20:49:29.921Z,101597.89
2024-02-28T20:52:02.462Z,101601.05
2024-02-28T20:54:34.697Z,101602.23
2024-02-28T20:57:12.717Z,101607.04
2024-02-28T20:59:48.859Z,101611.98
2024-02-28T21:02:20.999Z,101608.45
2024-02-28T21:04:53.307Z,101613.48
2024-02-28T21:07:36.911Z,101612.27
2024-02-28T21:10:17.362Z,101610.20
2024-02-28T21:12:49.385Z,101608.30
2024-02-28T21:15:21.560Z,101612.09
2024-02-28T21:17:53.549Z,101615.02
2024-02-28T21:20:26.106Z,101609.09
2024-02-28T21:22:58.089Z,101609.06
2024-02-28T21:25:30.026Z,101607.92
2024-02-28T21:28:02.105Z,101606.44
2024-02-28T21:30:34.278Z,101606.89
2024-02-28T21:33:06.855Z,101613.64
2024-02-28T21:35:43.635Z,101614.90
2024-02-28T21:38:15.801Z,101614.25
2024-02-28T21:40:47.768Z,101616.99
2024-02-28T21:43:19.823Z,101615.77
2024-02-28T21:45:51.922Z,101611.70
2024-02-28T21:48:23.886Z,101612.23
2024-02-28T21:50:55.773Z,101611.99
2024-02-28T21:53:27.658Z,101610.50
2024-02-28T21:55:59.434Z,101605.80
2024-02-28T21:58:31.439Z,101605.71
2024-02-28T22:01:03.683Z,101601.84
2024-02-28T22:03:35.851Z,101603.32
2024-02-28T22:06:10.865Z,101602.49
2024-02-28T22:08:43.025Z,101603.66
2024-02-28T22:11:15.121Z,101605.79
2024-02-28T22:13:47.124Z,101605.73
2024-02-28T22:16:18.946Z,101606.63
2024-02-28T22:18:51.807Z,101608.34
2024-02-28T22:21:23.833Z,101609.48
2024-02-28T22:23:55.721Z,101606.07
2024-02-28T22:26:27.750Z,101599.08
2024-02-28T22:28:59.747Z,101600.29
2024-02-28T22:31:31.780Z,101598.19
2024-02-28T22:34:03.851Z,101597.54
2024-02-28T22:36:35.624Z,101597.25
2024-02-28T22:39:10.361Z,101598.60
2024-02-28T22:41:42.213Z,101596.06
2024-02-28T22:44:14.244Z,101597.50
2024-02-28T22:46:46.777Z,101599.10
2024-02-28T22:49:18.801Z,101600.70
2024-02-28T22:51:50.876Z,101598.02
2024-02-28T22:54:24.293Z,101596.08
2024-02-28T22:56:56.388Z,101596.02
2024-02-28T22:59:28.414Z,101594.36
2024-02-28T23:02:00.371Z,101596.63
2024-02-28T23:04:32.393Z,101590.80
2024-02-28T23:07:04.266Z,101597.58
2024-02-28T23:09:36.610Z,101596.86
2024-02-28T23:12:09.183Z,101595.67
2024-02-28T23:14:41.194Z,101598.20
2024-02-28T23:17:13.049Z,101592.80
2024-02-28T23:19:47.462Z,101592.95
2024-02-28T23:22:20.554Z,101595.02
2024-02-28T23:24:52.840Z,101597.83
2024-02-28T23:27:26.436Z,101594.46
2024-02-28T23:29:58.333Z,101596.41
2024-02-28T23:32:30.303Z,101595.30
2024-02-28T23:35:02.159Z,101590.86
2024-02-28T23:37:34.095Z,101586.48
2024-02-28T23:40:07.841Z,101584.23
2024-02-28T23:42:40.218Z,101592.42
2024-02-28T23:45:13.794Z,101591.71
2024-02-28T23:47:46.037Z,101589.50
2024-02-28T23:50:18.158Z,101587.91
2024-02-28T23:52:50.102Z,101587.11
2024-02-28T23:55:22.381Z,101584.15
2024-02-28T23:57:54.286Z,101591.62
